Das ist die Wetter- und Hausseite der Bittkau's aus Magdeburg Ottersleben


Hier werden aktuelle Daten aus der privaten Wetterstation und

andere lokale Wettervorhersagen bereitgestellt




Thunder radar more information blitzortung!


Rain radar more information rain snow radar



Es ist keine erhöhte Aufmerksamkeit aufgrund des Wetters notwendig.    Es gibt keine Warnungen.

METAR-Meldungen aus der Umgebung

   
EDDP - Leipzig
Aktualisierung: 20.08.2018 3:20
Klar  
Klar  
   Wind: Westen 13 km/h
Wind: Westen 13 km/h
Temperatur: 18°C
Taupunkt: 9°C
Luftfeuchte: 56%
Luftdruck: 1017 hPa
Sichtbarkeit: More than 10 km
Bewölkung: Klar
EDDP 200120Z 27007KT CAVOK 18/09 Q1017 NOSIG
EDDC - Dresden
Aktualisierung: 20.08.2018 3:20
Klar  
Klar  
   Wind: SSW 11.1 km/h
Wind: SSW 11.1 km/h
Temperatur: 19°C
Taupunkt: 15°C
Luftfeuchte: 78%
Luftdruck: 1017 hPa
Sichtbarkeit: More than 10 km
Bewölkung: Klar
EDDC 200120Z 21006KT CAVOK 19/15 Q1017
EDDE - Erfurt
Aktualisierung: 20.08.2018 3:20
Klar  
Klar  
   Wind: SW 9.3 km/h
Wind: SW 9.3 km/h
Temperatur: 16°C
Taupunkt: 8°C
Luftfeuchte: 59%
Luftdruck: 1018 hPa
Sichtbarkeit: More than 10 km
Bewölkung: Klar
EDDE 200120Z 22005KT CAVOK 16/08 Q1018
EDVE - Braunschweig
Aktualisierung: 19.08.2018 8:50
Nicht aktuell
Klar  
Klar  
   Wind: NW 9.3 km/h
Wind: NW 9.3 km/h
Temperatur: 25°C
Taupunkt: 12°C
Luftfeuchte: 44%
Luftdruck: 1016 hPa
Sichtbarkeit: More than 10 km
Bewölkung: Klar
EDVE 191850Z 31005KT CAVOK 25/12 Q1016
EDDV - Hannover
Aktualisierung: 20.08.2018 3:20
Stark bewölkt  
Stark bewölkt  
   Wind: WSW 9.3 km/h
Wind: WSW 9.3 km/h
Temperatur: 20°C
Taupunkt: 14°C
Luftfeuchte: 69%
Luftdruck: 1016 hPa
Bewölkt: Stark bewölkt
Sichtbarkeit: More than 10 km
Bewölkung: Stark bewölkt 1249.7 m
EDDV 200120Z 24005KT 9999 BKN041 20/14 Q1016
EDDT - Berlin
Aktualisierung: 20.08.2018 3:20
Klar  
Klar  
   Wind: Westen 7.4 km/h
Wind: Westen 7.4 km/h
Temperatur: 17°C
Taupunkt: 12°C
Luftfeuchte: 73%
Luftdruck: 1015 hPa
Sichtbarkeit: More than 10 km
Bewölkung: Klar
EDDT 200120Z 28004KT CAVOK 17/12 Q1015
EDDE - Schwerin
Aktualisierung: 20.08.2018 3:20
Klar  
Klar  
   Wind: SW 9.3 km/h
Wind: SW 9.3 km/h
Temperatur: 16°C
Taupunkt: 8°C
Luftfeuchte: 59%
Luftdruck: 1018 hPa
Sichtbarkeit: More than 10 km
Bewölkung: Klar
EDDE 200120Z 22005KT CAVOK 16/08 Q1018
EDHI - Hamburg
Aktualisierung: 18.08.2018 3:50
Nicht aktuell
Klar  
Klar  
   Wind: WSW 20.4 km/h
Wind: WSW 20.4 km/h
Temperatur: 24°C
Taupunkt: 11°C
Luftfeuchte: 44%
Luftdruck: 1019 hPa
Sichtbarkeit: More than 10 km
Bewölkung: Klar
EDHI 181350Z 25011KT 220V280 CAVOK 24/11 Q1019
EDDK - Köln/Bonn
Aktualisierung: 20.08.2018 3:20
Stark bewölkt  
Stark bewölkt  
   Wind: SSW 7.4 km/h
Wind: SSW 7.4 km/h
Temperatur: 20°C
Taupunkt: 15°C
Luftfeuchte: 73%
Luftdruck: 1019 hPa
Bewölkt: Stark bewölkt
Sichtbarkeit: More than 10 km
Bewölkung: Stark bewölkt 1158.2 m
EDDK 200120Z 21004KT 9999 BKN038 20/15 Q1019 NOSIG
EDHL - Luebeck
Aktualisierung: 19.08.2018 8:50
Nicht aktuell
Klar  
Klar  
   Wind: Westen 5.6 km/h
Wind: Westen 5.6 km/h
Temperatur: 23°C
Taupunkt: 13°C
Luftfeuchte: 53%
Luftdruck: 1016 hPa
Sichtbarkeit: More than 10 km
Bewölkung: Klar
EDHL 191850Z 26003KT 210V300 CAVOK 23/13 Q1016
  

Script entwickelt von  Saratoga-weather.org Angepasst für das Template von  Weerstation Leuven

Sie finden die Wetterinfo auch auf:

Wetternetzwerk Deutschland

European Weather Network

Weather Underground

Regionalwetter-SA

wetter.com

wxforum.de

Genutzte Hardware, Software und WEB Anbieter:

Wetterstation
Ventus W928-Ultimate

Wetterprogramm
Meteohub

WetterComputer
RaspberryPI

Anbieter
WEB Provider One.com

Ventus W928-Ultimate

Meteohub

RaspberryPI

WEB Provider One.com